createdAt,value
2018-05-26T00:00:01.346Z,795.81
2018-05-26T00:00:05.432Z,795.76
2018-05-26T00:00:09.432Z,795.78
2018-05-26T00:00:13.547Z,795.77
2018-05-26T00:00:17.869Z,795.75
2018-05-26T00:00:21.915Z,795.75
2018-05-26T00:00:26.228Z,795.77
2018-05-26T00:00:30.553Z,795.76
2018-05-26T00:00:34.659Z,795.75
2018-05-26T00:00:38.774Z,795.76
2018-05-26T00:00:43.100Z,795.75
2018-05-26T00:00:47.207Z,795.76
2018-05-26T00:00:51.313Z,795.76
2018-05-26T00:00:55.524Z,795.76
2018-05-26T00:00:59.731Z,795.74
2018-05-26T00:01:03.951Z,795.74
2018-05-26T00:01:08.185Z,795.78
2018-05-26T00:01:12.397Z,795.76
2018-05-26T00:01:16.610Z,795.77
2018-05-26T00:01:20.824Z,795.75
2018-05-26T00:01:39.859Z,795.75
2018-05-26T00:01:44.186Z,795.72
2018-05-26T00:01:48.397Z,795.73
2018-05-26T00:01:52.501Z,795.74
2018-05-26T00:01:56.712Z,795.71
2018-05-26T00:02:00.924Z,795.73
2018-05-26T00:02:04.975Z,795.74
2018-05-26T00:02:08.860Z,795.73
2018-05-26T00:02:13.067Z,795.73
2018-05-26T00:02:17.281Z,795.73
2018-05-26T00:02:21.603Z,795.72
2018-05-26T00:02:25.961Z,795.74
2018-05-26T00:02:30.170Z,795.73
2018-05-26T00:02:34.488Z,795.73
2018-05-26T00:02:38.594Z,795.69
2018-05-26T00:02:42.814Z,795.71
2018-05-26T00:02:47.137Z,795.7
2018-05-26T00:02:51.458Z,795.67
2018-05-26T00:02:55.666Z,795.67
2018-05-26T00:02:59.879Z,795.69
2018-05-26T00:03:03.987Z,795.68
2018-05-26T00:03:08.095Z,795.69
2018-05-26T00:03:12.201Z,795.63
2018-05-26T00:03:16.410Z,795.7
2018-05-26T00:03:20.735Z,795.68
2018-05-26T00:03:25.064Z,795.66
2018-05-26T00:03:29.379Z,795.66
2018-05-26T00:03:33.591Z,795.67
2018-05-26T00:03:37.693Z,795.68
2018-05-26T00:03:41.903Z,795.68
2018-05-26T00:03:46.221Z,795.66
2018-05-26T00:03:50.545Z,795.65
2018-05-26T00:03:54.867Z,795.65
2018-05-26T00:03:59.079Z,795.64
2018-05-26T00:04:03.065Z,795.64
2018-05-26T00:04:07.278Z,795.65
2018-05-26T00:04:11.394Z,795.62
2018-05-26T00:04:15.748Z,795.61
2018-05-26T00:04:19.749Z,795.6
2018-05-26T00:04:23.748Z,795.57
2018-05-26T00:04:27.891Z,795.6
2018-05-26T00:04:32.106Z,795.6
2018-05-26T00:04:36.322Z,795.61
2018-05-26T00:04:40.424Z,795.57
2018-05-26T00:04:44.533Z,795.6
2018-05-26T00:04:48.747Z,795.6
2018-05-26T00:04:52.971Z,795.6
2018-05-26T00:04:56.971Z,795.63
2018-05-26T00:05:01.081Z,795.58
2018-05-26T00:05:05.088Z,795.56
2018-05-26T00:05:09.304Z,795.54
2018-05-26T00:05:13.514Z,795.6
2018-05-26T00:05:17.619Z,795.57
2018-05-26T00:05:21.833Z,795.53
2018-05-26T00:05:26.053Z,795.57
2018-05-26T00:05:30.263Z,795.54
2018-05-26T00:05:34.369Z,795.6
2018-05-26T00:05:38.687Z,795.57
2018-05-26T00:05:42.906Z,795.57
2018-05-26T00:05:47.121Z,795.58
2018-05-26T00:05:51.223Z,795.54
2018-05-26T00:05:55.542Z,795.53
2018-05-26T00:05:59.763Z,795.53
2018-05-26T00:06:03.700Z,795.53
2018-05-26T00:06:07.726Z,795.55
2018-05-26T00:06:11.832Z,795.56
2018-05-26T00:06:15.936Z,795.56
2018-05-26T00:06:20.153Z,795.54
2018-05-26T00:06:24.267Z,795.53
2018-05-26T00:06:28.380Z,795.52
2018-05-26T00:06:32.274Z,795.53
2018-05-26T00:06:36.489Z,795.53
2018-05-26T00:06:40.704Z,795.51
2018-05-26T00:06:45.029Z,795.49
2018-05-26T00:06:49.033Z,795.51
2018-05-26T00:06:53.244Z,795.48
2018-05-26T00:06:57.461Z,795.5
2018-05-26T00:07:01.471Z,795.51
2018-05-26T00:07:05.587Z,795.5
2018-05-26T00:07:09.905Z,795.51
2018-05-26T00:07:14.220Z,795.53
2018-05-26T00:07:18.431Z,795.48
2018-05-26T00:07:22.535Z,795.5
2018-05-26T00:07:26.643Z,795.5
2018-05-26T00:07:30.863Z,795.49
2018-05-26T00:07:34.972Z,795.52
2018-05-26T00:07:39.179Z,795.51
2018-05-26T00:07:43.394Z,795.49
2018-05-26T00:07:47.622Z,795.48
2018-05-26T00:07:51.720Z,795.47
2018-05-26T00:07:56.076Z,795.48
2018-05-26T00:08:00.296Z,795.45
2018-05-26T00:08:04.512Z,795.53
2018-05-26T00:08:08.514Z,795.53
2018-05-26T00:08:12.623Z,795.47
2018-05-26T00:08:16.725Z,795.52
2018-05-26T00:08:20.724Z,795.53
2018-05-26T00:08:24.956Z,795.52
2018-05-26T00:08:29.280Z,795.52
2018-05-26T00:08:33.494Z,795.5
2018-05-26T00:08:37.607Z,795.48
2018-05-26T00:08:41.820Z,795.45
2018-05-26T00:08:45.819Z,795.49
2018-05-26T00:08:49.821Z,795.5
2018-05-26T00:08:54.032Z,795.51
2018-05-26T00:08:58.250Z,795.51
2018-05-26T00:09:02.464Z,795.51
2018-05-26T00:09:06.675Z,795.5
2018-05-26T00:09:10.671Z,795.51
2018-05-26T00:09:14.884Z,795.52
2018-05-26T00:09:19.198Z,795.55
2018-05-26T00:09:23.427Z,795.51
2018-05-26T00:09:27.421Z,795.5
2018-05-26T00:09:31.640Z,795.53
2018-05-26T00:09:35.854Z,795.56
2018-05-26T00:09:40.067Z,795.53
2018-05-26T00:09:44.172Z,795.5
2018-05-26T00:09:48.274Z,795.49
2018-05-26T00:09:52.484Z,795.52
2018-05-26T00:09:56.695Z,795.54
2018-05-26T00:10:00.925Z,795.52
2018-05-26T00:10:05.031Z,795.54
2018-05-26T00:10:09.135Z,795.52
2018-05-26T00:10:13.346Z,795.54
2018-05-26T00:10:17.569Z,795.54
2018-05-26T00:10:21.893Z,795.52
2018-05-26T00:10:25.998Z,795.58
2018-05-26T00:10:30.216Z,795.54
2018-05-26T00:10:34.229Z,795.55
2018-05-26T00:10:38.460Z,795.49
2018-05-26T00:10:42.673Z,795.5
2018-05-26T00:10:46.668Z,795.53
2018-05-26T00:10:50.773Z,795.53
2018-05-26T00:10:54.872Z,795.53
2018-05-26T00:10:58.977Z,795.51
2018-05-26T00:11:03.084Z,795.54
2018-05-26T00:11:07.189Z,795.53
2018-05-26T00:11:11.290Z,795.49
2018-05-26T00:11:15.617Z,795.53
2018-05-26T00:11:19.828Z,795.55
2018-05-26T00:11:23.942Z,795.55
2018-05-26T00:11:28.041Z,795.55
2018-05-26T00:11:32.358Z,795.55
2018-05-26T00:11:36.571Z,795.56
2018-05-26T00:11:40.695Z,795.56
2018-05-26T00:11:44.802Z,795.52
2018-05-26T00:11:49.122Z,795.55
2018-05-26T00:11:53.440Z,795.56
2018-05-26T00:11:57.544Z,795.58
2018-05-26T00:12:01.866Z,795.56
2018-05-26T00:12:05.756Z,795.54
2018-05-26T00:12:10.075Z,795.56
2018-05-26T00:12:14.301Z,795.54
2018-05-26T00:12:18.621Z,795.58
2018-05-26T00:12:22.725Z,795.57
2018-05-26T00:12:27.052Z,795.57
2018-05-26T00:12:31.263Z,795.56
2018-05-26T00:12:35.470Z,795.61
2018-05-26T00:12:39.570Z,795.58
2018-05-26T00:12:43.899Z,795.55
2018-05-26T00:12:48.028Z,795.57
2018-05-26T00:12:52.136Z,795.56
2018-05-26T00:12:56.354Z,795.6
2018-05-26T00:13:00.685Z,795.62
2018-05-26T00:13:04.786Z,795.6
2018-05-26T00:13:09.005Z,795.56
2018-05-26T00:13:13.327Z,795.59
2018-05-26T00:13:17.645Z,795.55
2018-05-26T00:13:21.758Z,795.53
2018-05-26T00:13:25.864Z,795.59
2018-05-26T00:13:30.073Z,795.6
2018-05-26T00:13:34.287Z,795.59
2018-05-26T00:13:38.497Z,795.57
2018-05-26T00:13:42.598Z,795.61
2018-05-26T00:13:46.822Z,795.6
2018-05-26T00:13:51.146Z,795.55
2018-05-26T00:13:55.033Z,795.54
2018-05-26T00:13:59.239Z,795.56
2018-05-26T00:14:03.453Z,795.56
2018-05-26T00:14:07.557Z,795.58
2018-05-26T00:14:11.661Z,795.56
2018-05-26T00:14:15.792Z,795.57
2018-05-26T00:14:20.011Z,795.56
2018-05-26T00:14:24.220Z,795.56
2018-05-26T00:14:28.392Z,795.53
2018-05-26T00:14:32.507Z,795.55
2018-05-26T00:14:36.714Z,795.57
2018-05-26T00:14:41.080Z,795.56
2018-05-26T00:14:45.186Z,795.54
2018-05-26T00:14:49.182Z,795.54
2018-05-26T00:14:53.291Z,795.54
2018-05-26T00:14:57.614Z,795.54
2018-05-26T00:15:01.724Z,795.48
2018-05-26T00:15:05.854Z,795.55
2018-05-26T00:15:10.173Z,795.53
2018-05-26T00:15:14.384Z,795.49
2018-05-26T00:15:18.699Z,795.54
2018-05-26T00:15:22.918Z,795.53
2018-05-26T00:15:27.138Z,795.53
2018-05-26T00:15:31.355Z,795.5
2018-05-26T00:15:35.675Z,795.53
2018-05-26T00:15:39.686Z,795.53
2018-05-26T00:15:43.846Z,795.55
2018-05-26T00:15:48.064Z,795.52
2018-05-26T00:15:52.273Z,795.52
2018-05-26T00:15:56.487Z,795.53
2018-05-26T00:16:00.491Z,795.52
2018-05-26T00:16:04.611Z,795.53
2018-05-26T00:16:08.951Z,795.49
2018-05-26T00:16:13.168Z,795.51
2018-05-26T00:16:17.382Z,795.53
2018-05-26T00:16:21.590Z,795.5
2018-05-26T00:16:25.482Z,795.51
2018-05-26T00:16:29.693Z,795.51
2018-05-26T00:16:33.912Z,795.51
2018-05-26T00:16:38.031Z,795.49
2018-05-26T00:16:42.350Z,795.5
2018-05-26T00:16:46.563Z,795.47
2018-05-26T00:16:50.777Z,795.5
2018-05-26T00:16:54.991Z,795.46
2018-05-26T00:16:59.218Z,795.5
2018-05-26T00:17:03.432Z,795.48
2018-05-26T00:17:07.542Z,795.43
2018-05-26T00:17:11.758Z,795.45
2018-05-26T00:17:16.071Z,795.48
2018-05-26T00:17:20.417Z,795.47
2018-05-26T00:17:24.526Z,795.48
2018-05-26T00:17:28.845Z,795.48
2018-05-26T00:17:33.062Z,795.46
2018-05-26T00:17:37.161Z,795.46
2018-05-26T00:17:41.152Z,795.48
2018-05-26T00:17:45.403Z,795.47
2018-05-26T00:17:49.410Z,795.48
2018-05-26T00:17:53.625Z,795.47
2018-05-26T00:17:57.841Z,795.45
2018-05-26T00:18:02.116Z,795.46
2018-05-26T00:18:06.228Z,795.46
2018-05-26T00:18:10.437Z,795.43
2018-05-26T00:18:14.750Z,795.42
2018-05-26T00:18:18.857Z,795.39
2018-05-26T00:18:23.066Z,795.4
2018-05-26T00:18:27.279Z,795.45
2018-05-26T00:18:31.499Z,795.45
2018-05-26T00:18:35.714Z,795.42
2018-05-26T00:18:39.822Z,795.46
2018-05-26T00:18:44.039Z,795.44
2018-05-26T00:18:48.050Z,795.43
2018-05-26T00:18:52.367Z,795.41
2018-05-26T00:18:56.682Z,795.42
2018-05-26T00:19:00.998Z,795.42
2018-05-26T00:19:05.262Z,795.45
2018-05-26T00:19:09.477Z,795.43
2018-05-26T00:19:13.695Z,795.41
2018-05-26T00:19:17.905Z,795.42
2018-05-26T00:19:22.010Z,795.41
2018-05-26T00:19:26.286Z,795.45
2018-05-26T00:19:30.389Z,795.41
2018-05-26T00:19:34.734Z,795.42
2018-05-26T00:19:38.838Z,795.38
2018-05-26T00:19:43.044Z,795.41
2018-05-26T00:19:47.158Z,795.44
2018-05-26T00:19:51.156Z,795.44
2018-05-26T00:19:55.263Z,795.43
2018-05-26T00:19:59.368Z,795.39
2018-05-26T00:20:03.369Z,795.42
2018-05-26T00:20:07.692Z,795.4
2018-05-26T00:20:12.011Z,795.42
2018-05-26T00:20:16.333Z,795.43
2018-05-26T00:20:20.655Z,795.41
2018-05-26T00:20:24.868Z,795.41
2018-05-26T00:20:28.760Z,795.44
2018-05-26T00:20:32.658Z,795.39
2018-05-26T00:20:36.940Z,795.41
2018-05-26T00:20:41.162Z,795.42
2018-05-26T00:20:45.159Z,795.44
2018-05-26T00:20:49.368Z,795.39
2018-05-26T00:20:53.470Z,795.37
2018-05-26T00:20:57.677Z,795.38
2018-05-26T00:21:01.790Z,795.34
2018-05-26T00:21:05.841Z,795.39
2018-05-26T00:21:10.054Z,795.35
2018-05-26T00:21:14.270Z,795.39
2018-05-26T00:21:18.488Z,795.39
2018-05-26T00:21:22.702Z,795.38
2018-05-26T00:21:26.804Z,795.39
2018-05-26T00:21:30.802Z,795.37
2018-05-26T00:21:35.016Z,795.39
2018-05-26T00:21:39.229Z,795.38
2018-05-26T00:21:43.442Z,795.33
2018-05-26T00:21:47.552Z,795.36
2018-05-26T00:21:51.874Z,795.39
2018-05-26T00:21:55.982Z,795.38
2018-05-26T00:22:00.338Z,795.36
2018-05-26T00:22:04.225Z,795.37
2018-05-26T00:22:08.541Z,795.36
2018-05-26T00:22:12.641Z,795.37
2018-05-26T00:22:16.640Z,795.35
2018-05-26T00:22:20.749Z,795.34
2018-05-26T00:22:24.965Z,795.35
2018-05-26T00:22:29.299Z,795.32
2018-05-26T00:22:33.508Z,795.34
2018-05-26T00:22:37.731Z,795.34
2018-05-26T00:22:41.831Z,795.35
2018-05-26T00:22:45.938Z,795.34
2018-05-26T00:22:50.277Z,795.37
2018-05-26T00:22:54.495Z,795.34
2018-05-26T00:22:58.824Z,795.29
2018-05-26T00:23:02.935Z,795.35
2018-05-26T00:23:07.278Z,795.35
2018-05-26T00:23:11.385Z,795.31
2018-05-26T00:23:15.490Z,795.31
2018-05-26T00:23:19.487Z,795.28
2018-05-26T00:23:23.504Z,795.29
2018-05-26T00:23:27.628Z,795.28
2018-05-26T00:23:31.844Z,795.35
2018-05-26T00:23:36.057Z,795.34
2018-05-26T00:23:40.385Z,795.3
2018-05-26T00:23:44.493Z,795.28
2018-05-26T00:23:48.491Z,795.3
2018-05-26T00:23:52.593Z,795.32
2018-05-26T00:23:56.693Z,795.33
2018-05-26T00:24:01.009Z,795.3
2018-05-26T00:24:05.161Z,795.28
2018-05-26T00:24:09.283Z,795.31
2018-05-26T00:24:13.282Z,795.3
2018-05-26T00:24:17.488Z,795.3
2018-05-26T00:24:21.380Z,795.32
2018-05-26T00:24:25.496Z,795.29
2018-05-26T00:24:29.716Z,795.26
2018-05-26T00:24:33.928Z,795.28
2018-05-26T00:24:38.028Z,795.28
2018-05-26T00:24:42.354Z,795.29
2018-05-26T00:24:46.577Z,795.31
2018-05-26T00:24:50.896Z,795.28
2018-05-26T00:24:54.796Z,795.29
2018-05-26T00:24:59.010Z,795.29
2018-05-26T00:25:03.014Z,795.29
2018-05-26T00:25:07.125Z,795.28
2018-05-26T00:25:11.342Z,795.26
2018-05-26T00:25:15.553Z,795.27
2018-05-26T00:25:19.765Z,795.27
2018-05-26T00:25:23.975Z,795.27
2018-05-26T00:25:28.187Z,795.28
2018-05-26T00:25:32.762Z,795.27
2018-05-26T00:25:37.608Z,795.28
2018-05-26T00:25:42.123Z,795.28
2018-05-26T00:25:46.236Z,795.22
2018-05-26T00:25:50.236Z,795.22
2018-05-26T00:25:54.449Z,795.28
2018-05-26T00:25:58.664Z,795.24
2018-05-26T00:26:02.667Z,795.24
2018-05-26T00:26:06.884Z,795.23
2018-05-26T00:26:10.993Z,795.27
2018-05-26T00:26:15.329Z,795.23
2018-05-26T00:26:19.470Z,795.18
2018-05-26T00:26:23.787Z,795.19
2018-05-26T00:26:28.108Z,795.25
2018-05-26T00:26:32.329Z,795.26
2018-05-26T00:26:36.323Z,795.23
2018-05-26T00:26:40.434Z,795.23
2018-05-26T00:26:44.657Z,795.22
2018-05-26T00:26:48.880Z,795.22
2018-05-26T00:26:53.204Z,795.22
2018-05-26T00:26:57.199Z,795.24
2018-05-26T00:27:01.517Z,795.23
2018-05-26T00:27:05.629Z,795.24
2018-05-26T00:27:09.637Z,795.21
2018-05-26T00:27:13.639Z,795.24
2018-05-26T00:27:17.976Z,795.21
2018-05-26T00:27:22.186Z,795.25
2018-05-26T00:27:26.402Z,795.24
2018-05-26T00:27:30.609Z,795.22
2018-05-26T00:27:34.713Z,795.16
2018-05-26T00:27:39.039Z,795.23
2018-05-26T00:27:43.256Z,795.21
2018-05-26T00:27:47.364Z,795.23
2018-05-26T00:27:51.576Z,795.25
2018-05-26T00:27:55.784Z,795.24
2018-05-26T00:27:59.783Z,795.22
2018-05-26T00:28:04.005Z,795.21
2018-05-26T00:28:08.119Z,795.22
2018-05-26T00:28:12.338Z,795.15
2018-05-26T00:28:16.560Z,795.23
2018-05-26T00:28:20.563Z,795.2
2018-05-26T00:28:24.676Z,795.17
2018-05-26T00:28:28.890Z,795.23
2018-05-26T00:28:32.888Z,795.16
2018-05-26T00:28:37.215Z,795.24
2018-05-26T00:28:41.547Z,795.2
2018-05-26T00:28:45.658Z,795.21
2018-05-26T00:28:49.974Z,795.2
2018-05-26T00:28:53.969Z,795.18
2018-05-26T00:28:58.183Z,795.19
2018-05-26T00:29:02.396Z,795.22
2018-05-26T00:29:06.407Z,795.2
2018-05-26T00:29:10.627Z,795.18
2018-05-26T00:29:14.740Z,795.21
2018-05-26T00:29:18.950Z,795.21
2018-05-26T00:29:23.058Z,795.21
2018-05-26T00:29:27.284Z,795.22
2018-05-26T00:29:31.601Z,795.22
2018-05-26T00:29:35.921Z,795.2
2018-05-26T00:29:40.144Z,795.22
2018-05-26T00:29:44.244Z,795.2
2018-05-26T00:29:48.458Z,795.17
2018-05-26T00:29:52.665Z,795.16
2018-05-26T00:29:56.873Z,795.17
2018-05-26T00:30:01.195Z,795.21
2018-05-26T00:30:05.190Z,795.22
2018-05-26T00:30:09.184Z,795.21
2018-05-26T00:30:13.395Z,795.2
2018-05-26T00:30:17.709Z,795.21
2018-05-26T00:30:21.974Z,795.22
2018-05-26T00:30:26.289Z,795.19
2018-05-26T00:30:30.517Z,795.16
2018-05-26T00:30:34.731Z,795.18
2018-05-26T00:30:39.049Z,795.2
2018-05-26T00:30:43.266Z,795.22
2018-05-26T00:30:47.584Z,795.24
2018-05-26T00:30:51.695Z,795.23
2018-05-26T00:30:55.915Z,795.21
2018-05-26T00:31:00.231Z,795.23
2018-05-26T00:31:04.341Z,795.22
2018-05-26T00:31:08.553Z,795.2
2018-05-26T00:31:12.660Z,795.18
2018-05-26T00:31:16.979Z,795.28
2018-05-26T00:31:21.187Z,795.23
2018-05-26T00:31:25.401Z,795.18
2018-05-26T00:31:29.517Z,795.18
2018-05-26T00:31:33.730Z,795.22
2018-05-26T00:31:38.054Z,795.22
2018-05-26T00:31:42.280Z,795.25
2018-05-26T00:31:46.492Z,795.23
2018-05-26T00:31:50.711Z,795.22
2018-05-26T00:31:55.030Z,795.22
2018-05-26T00:31:59.144Z,795.23
2018-05-26T00:32:03.263Z,795.17
2018-05-26T00:32:07.376Z,795.15
2018-05-26T00:32:11.483Z,795.17
2018-05-26T00:32:15.690Z,795.18
2018-05-26T00:32:19.904Z,795.25
2018-05-26T00:32:24.223Z,795.24
2018-05-26T00:32:28.221Z,795.24
2018-05-26T00:32:32.536Z,795.23
2018-05-26T00:32:36.546Z,795.22
2018-05-26T00:32:40.649Z,795.2
2018-05-26T00:32:44.765Z,795.27
2018-05-26T00:32:48.870Z,795.24
2018-05-26T00:32:52.869Z,795.22
2018-05-26T00:32:56.871Z,795.22
2018-05-26T00:33:01.188Z,795.22
2018-05-26T00:33:05.404Z,795.22
2018-05-26T00:33:09.623Z,795.2
2018-05-26T00:33:13.949Z,795.2
2018-05-26T00:33:18.165Z,795.21
2018-05-26T00:33:22.270Z,795.19
2018-05-26T00:33:26.589Z,795.18
2018-05-26T00:33:30.794Z,795.18
2018-05-26T00:33:34.801Z,795.19
2018-05-26T00:33:39.123Z,795.2
2018-05-26T00:33:43.241Z,795.18
2018-05-26T00:33:47.234Z,795.21
2018-05-26T00:33:51.446Z,795.19
2018-05-26T00:33:55.446Z,795.2
2018-05-26T00:33:59.771Z,795.15
2018-05-26T00:34:04.033Z,795.16
2018-05-26T00:34:08.139Z,795.2
2018-05-26T00:34:12.239Z,795.19
2018-05-26T00:34:16.455Z,795.21
2018-05-26T00:34:20.666Z,795.18
2018-05-26T00:34:24.888Z,795.2
2018-05-26T00:34:29.019Z,795.16
2018-05-26T00:34:33.335Z,795.17
2018-05-26T00:34:37.543Z,795.18
2018-05-26T00:34:41.433Z,795.18
2018-05-26T00:34:45.755Z,795.21
2018-05-26T00:34:49.971Z,795.15
2018-05-26T00:34:54.187Z,795.2
2018-05-26T00:34:58.183Z,795.19
2018-05-26T00:35:02.598Z,795.12
2018-05-26T00:35:06.808Z,795.17
2018-05-26T00:35:10.808Z,795.14
2018-05-26T00:35:14.916Z,795.1
2018-05-26T00:35:19.016Z,795.13
2018-05-26T00:35:23.123Z,795.12
2018-05-26T00:35:27.338Z,795.13
2018-05-26T00:35:31.653Z,795.15
2018-05-26T00:35:35.767Z,795.16
2018-05-26T00:35:40.091Z,795.13
2018-05-26T00:35:44.303Z,795.13
2018-05-26T00:35:48.190Z,795.13
2018-05-26T00:35:52.185Z,795.16
2018-05-26T00:35:56.396Z,795.11
2018-05-26T00:36:00.612Z,795.09
2018-05-26T00:36:04.552Z,795.1
2018-05-26T00:36:08.760Z,795.11
2018-05-26T00:36:12.875Z,795.14
2018-05-26T00:36:16.975Z,795.12
2018-05-26T00:36:21.188Z,795.12
2018-05-26T00:36:25.184Z,795.13
2018-05-26T00:36:29.401Z,795.08
2018-05-26T00:36:33.504Z,795.07
2018-05-26T00:36:37.614Z,795.08
2018-05-26T00:36:41.718Z,795.1
2018-05-26T00:36:46.035Z,795.07
2018-05-26T00:36:50.354Z,795.09
2018-05-26T00:36:54.345Z,795.06
2018-05-26T00:36:58.445Z,795.02
2018-05-26T00:37:02.652Z,795.09
2018-05-26T00:37:06.869Z,795.06
2018-05-26T00:37:11.182Z,795.08
2018-05-26T00:37:15.189Z,795
2018-05-26T00:37:19.298Z,795.08
2018-05-26T00:37:23.510Z,795.05
2018-05-26T00:37:27.615Z,795.07
2018-05-26T00:37:31.825Z,795.05
2018-05-26T00:37:36.045Z,795.04
2018-05-26T00:37:40.147Z,795.02
2018-05-26T00:37:44.256Z,795.04
2018-05-26T00:37:48.582Z,795.03
2018-05-26T00:37:52.793Z,795.04
2018-05-26T00:37:56.897Z,795.05
2018-05-26T00:38:01.114Z,795.04
2018-05-26T00:38:05.220Z,795.01
2018-05-26T00:38:09.217Z,795.03
2018-05-26T00:38:13.429Z,795.05
2018-05-26T00:38:17.536Z,795.02
2018-05-26T00:38:21.750Z,795
2018-05-26T00:38:25.858Z,795.02
2018-05-26T00:38:30.079Z,795.03
2018-05-26T00:38:34.294Z,794.98
2018-05-26T00:38:38.518Z,794.99
2018-05-26T00:38:42.626Z,794.92
2018-05-26T00:38:46.739Z,795
2018-05-26T00:38:51.061Z,794.93
2018-05-26T00:38:55.277Z,794.95
2018-05-26T00:38:59.276Z,794.99
2018-05-26T00:39:03.594Z,794.98
2018-05-26T00:39:07.806Z,794.93
2018-05-26T00:39:12.130Z,794.93
2018-05-26T00:39:16.146Z,794.97
2018-05-26T00:39:20.253Z,794.96
2018-05-26T00:39:24.257Z,794.95
2018-05-26T00:39:28.411Z,794.97
2018-05-26T00:39:32.522Z,794.89
2018-05-26T00:39:36.752Z,794.94
2018-05-26T00:39:40.974Z,794.93
2018-05-26T00:39:45.080Z,794.94
2018-05-26T00:39:49.184Z,794.94
2018-05-26T00:39:53.400Z,794.94
2018-05-26T00:39:57.612Z,794.91
2018-05-26T00:40:01.714Z,794.91
2018-05-26T00:40:05.875Z,794.94
2018-05-26T00:40:09.868Z,794.92
2018-05-26T00:40:14.079Z,794.93
2018-05-26T00:40:18.405Z,794.92
2018-05-26T00:40:22.733Z,794.92
2018-05-26T00:40:26.945Z,794.93
2018-05-26T00:40:31.045Z,794.87
2018-05-26T00:40:35.040Z,794.88
2018-05-26T00:40:39.143Z,794.91
2018-05-26T00:40:43.400Z,794.91
2018-05-26T00:40:47.723Z,794.91
2018-05-26T00:40:52.047Z,794.88
2018-05-26T00:40:56.260Z,794.89
2018-05-26T00:41:00.471Z,794.91
2018-05-26T00:41:04.842Z,794.83
2018-05-26T00:41:09.166Z,794.8
2018-05-26T00:41:13.492Z,794.86
2018-05-26T00:41:17.812Z,794.84
2018-05-26T00:41:22.129Z,794.82
2018-05-26T00:41:26.338Z,794.82
2018-05-26T00:41:30.443Z,794.79
2018-05-26T00:41:34.659Z,794.81
2018-05-26T00:41:38.763Z,794.79
2018-05-26T00:41:43.093Z,794.81
2018-05-26T00:41:47.087Z,794.79
2018-05-26T00:41:51.080Z,794.78
2018-05-26T00:41:55.187Z,794.73
2018-05-26T00:41:59.511Z,794.73
2018-05-26T00:42:03.518Z,794.73
2018-05-26T00:42:07.837Z,794.74
2018-05-26T00:42:12.053Z,794.69
2018-05-26T00:42:16.157Z,794.67
2018-05-26T00:42:20.269Z,794.71
2018-05-26T00:42:24.488Z,794.7
2018-05-26T00:42:28.811Z,794.65
2018-05-26T00:42:33.133Z,794.66
2018-05-26T00:42:37.131Z,794.64
2018-05-26T00:42:41.237Z,794.62
2018-05-26T00:42:45.554Z,794.62
2018-05-26T00:42:49.769Z,794.62
2018-05-26T00:42:54.089Z,794.64
2018-05-26T00:42:58.312Z,794.59
2018-05-26T00:43:02.312Z,794.6
2018-05-26T00:43:06.528Z,794.6
2018-05-26T00:43:10.630Z,794.53
2018-05-26T00:43:14.950Z,794.55
2018-05-26T00:43:19.267Z,794.55
2018-05-26T00:43:23.402Z,794.54
2018-05-26T00:43:27.616Z,794.56
2018-05-26T00:43:31.718Z,794.52
2018-05-26T00:43:36.041Z,794.52
2018-05-26T00:43:40.369Z,794.52
2018-05-26T00:43:44.591Z,794.5
2018-05-26T00:43:48.801Z,794.48
2018-05-26T00:43:53.013Z,794.45
2018-05-26T00:43:57.225Z,794.48
2018-05-26T00:44:01.328Z,794.48
2018-05-26T00:44:05.318Z,794.45
2018-05-26T00:44:09.314Z,794.46
2018-05-26T00:44:13.641Z,794.46
2018-05-26T00:44:17.857Z,794.4
2018-05-26T00:44:22.083Z,794.41
2018-05-26T00:44:26.327Z,794.45
2018-05-26T00:44:30.334Z,794.43
2018-05-26T00:44:34.551Z,794.43
2018-05-26T00:44:38.551Z,794.41
2018-05-26T00:44:42.547Z,794.39
2018-05-26T00:44:46.805Z,794.37
2018-05-26T00:44:50.807Z,794.39
2018-05-26T00:44:54.907Z,794.35
2018-05-26T00:44:59.276Z,794.4
2018-05-26T00:45:03.499Z,794.38
2018-05-26T00:45:07.821Z,794.37
2018-05-26T00:45:11.816Z,794.39
2018-05-26T00:45:16.029Z,794.34
2018-05-26T00:45:20.251Z,794.32
2018-05-26T00:45:24.359Z,794.32
2018-05-26T00:45:28.573Z,794.33
2018-05-26T00:45:32.571Z,794.31
2018-05-26T00:45:36.677Z,794.32
2018-05-26T00:45:40.890Z,794.32
2018-05-26T00:45:45.106Z,794.36
2018-05-26T00:45:49.436Z,794.31
2018-05-26T00:45:53.760Z,794.34
2018-05-26T00:45:57.867Z,794.3
2018-05-26T00:46:02.299Z,794.33
2018-05-26T00:46:06.290Z,794.31
2018-05-26T00:46:10.499Z,794.31
2018-05-26T00:46:14.717Z,794.28
2018-05-26T00:46:18.930Z,794.27
2018-05-26T00:46:23.147Z,794.28
2018-05-26T00:46:27.353Z,794.27
2018-05-26T00:46:31.569Z,794.26
2018-05-26T00:46:35.568Z,794.28
2018-05-26T00:46:39.889Z,794.22
2018-05-26T00:46:44.104Z,794.25
2018-05-26T00:46:48.314Z,794.28
2018-05-26T00:46:52.633Z,794.24
2018-05-26T00:46:56.842Z,794.27
2018-05-26T00:47:01.163Z,794.23
2018-05-26T00:47:05.486Z,794.25
2018-05-26T00:47:09.374Z,794.25
2018-05-26T00:47:13.476Z,794.25
2018-05-26T00:47:17.796Z,794.24
2018-05-26T00:47:22.117Z,794.24
2018-05-26T00:47:26.328Z,794.24
2018-05-26T00:47:30.545Z,794.2
2018-05-26T00:47:34.758Z,794.24
2018-05-26T00:47:38.972Z,794.24
2018-05-26T00:47:43.288Z,794.27
2018-05-26T00:47:47.600Z,794.21
2018-05-26T00:47:51.808Z,794.25
2018-05-26T00:47:56.019Z,794.23
2018-05-26T00:48:00.123Z,794.24
2018-05-26T00:48:04.348Z,794.21
2018-05-26T00:48:08.357Z,794.2
2018-05-26T00:48:12.584Z,794.2
2018-05-26T00:48:16.912Z,794.19
2018-05-26T00:48:21.009Z,794.18
2018-05-26T00:48:25.115Z,794.21
2018-05-26T00:48:29.325Z,794.2
2018-05-26T00:48:33.582Z,794.2
2018-05-26T00:48:37.682Z,794.14
2018-05-26T00:48:41.997Z,794.17
2018-05-26T00:48:46.317Z,794.18
2018-05-26T00:48:50.422Z,794.19
2018-05-26T00:48:54.528Z,794.18
2018-05-26T00:48:58.849Z,794.17
2018-05-26T00:49:02.856Z,794.18
2018-05-26T00:49:06.737Z,794.17
2018-05-26T00:49:10.949Z,794.17
2018-05-26T00:49:15.093Z,794.19
2018-05-26T00:49:19.314Z,794.17
2018-05-26T00:49:23.535Z,794.17
2018-05-26T00:49:27.677Z,794.14
2018-05-26T00:49:31.901Z,794.16
2018-05-26T00:49:36.219Z,794.17
2018-05-26T00:49:40.235Z,794.14
2018-05-26T00:49:44.334Z,794.17
2018-05-26T00:49:48.651Z,794.14
2018-05-26T00:49:52.973Z,794.18
2018-05-26T00:49:57.078Z,794.15
2018-05-26T00:50:01.285Z,794.16
2018-05-26T00:50:05.180Z,794.14
2018-05-26T00:50:09.447Z,794.16
2018-05-26T00:50:13.661Z,794.16
2018-05-26T00:50:17.771Z,794.14
2018-05-26T00:50:22.137Z,794.14
2018-05-26T00:50:26.244Z,794.17
2018-05-26T00:50:30.353Z,794.17
2018-05-26T00:50:34.350Z,794.16
2018-05-26T00:50:38.466Z,794.17
2018-05-26T00:50:42.685Z,794.16
2018-05-26T00:50:46.790Z,794.17
2018-05-26T00:50:51.105Z,794.14
2018-05-26T00:50:55.424Z,794.17
2018-05-26T00:50:59.456Z,794.2
2018-05-26T00:51:03.563Z,794.18
2018-05-26T00:51:07.680Z,794.21
2018-05-26T00:51:11.903Z,794.24
2018-05-26T00:51:16.009Z,794.15
2018-05-26T00:51:20.223Z,794.17
2018-05-26T00:51:24.328Z,794.2
2018-05-26T00:51:28.541Z,794.24
2018-05-26T00:51:32.431Z,794.21
2018-05-26T00:51:36.538Z,794.21
2018-05-26T00:51:40.859Z,794.23
2018-05-26T00:51:45.071Z,794.23
2018-05-26T00:51:49.299Z,794.25
2018-05-26T00:51:53.506Z,794.23
2018-05-26T00:51:57.825Z,794.23
2018-05-26T00:52:02.198Z,794.24
2018-05-26T00:52:06.312Z,794.21
2018-05-26T00:52:10.306Z,794.25
2018-05-26T00:52:14.317Z,794.25
2018-05-26T00:52:18.529Z,794.26
2018-05-26T00:52:22.739Z,794.29
2018-05-26T00:52:26.840Z,794.29
2018-05-26T00:52:31.058Z,794.25
2018-05-26T00:52:35.378Z,794.27